sensor_id;sensor_type;location;lat;lon;timestamp;temperature;humidity
7494;DHT22;3788;49.902;8.590;2022-12-16T00:01:05;-3.50;99.10
7494;DHT22;3788;49.902;8.590;2022-12-16T00:03:32;-3.50;99.10
7494;DHT22;3788;49.902;8.590;2022-12-16T00:05:59;-3.50;99.10
7494;DHT22;3788;49.902;8.590;2022-12-16T00:08:28;-3.50;99.10
7494;DHT22;3788;49.902;8.590;2022-12-16T00:10:57;-3.40;99.10
7494;DHT22;3788;49.902;8.590;2022-12-16T00:13:24;-3.40;99.10
7494;DHT22;3788;49.902;8.590;2022-12-16T00:15:51;-3.40;99.10
7494;DHT22;3788;49.902;8.590;2022-12-16T00:18:18;-3.50;99.00
7494;DHT22;3788;49.902;8.590;2022-12-16T00:20:46;-3.50;99.10
7494;DHT22;3788;49.902;8.590;2022-12-16T00:23:13;-3.50;99.10
7494;DHT22;3788;49.902;8.590;2022-12-16T00:25:41;-3.50;99.10
7494;DHT22;3788;49.902;8.590;2022-12-16T00:28:11;-3.50;99.10
7494;DHT22;3788;49.902;8.590;2022-12-16T00:30:38;-3.50;99.20
7494;DHT22;3788;49.902;8.590;2022-12-16T00:33:05;-3.50;99.20
7494;DHT22;3788;49.902;8.590;2022-12-16T00:35:32;-3.50;99.20
7494;DHT22;3788;49.902;8.590;2022-12-16T00:37:58;-3.40;99.20
7494;DHT22;3788;49.902;8.590;2022-12-16T00:40:25;-3.40;99.30
7494;DHT22;3788;49.902;8.590;2022-12-16T00:42:53;-3.40;99.30
7494;DHT22;3788;49.902;8.590;2022-12-16T00:45:21;-3.40;99.30
7494;DHT22;3788;49.902;8.590;2022-12-16T00:47:49;-3.40;99.30
7494;DHT22;3788;49.902;8.590;2022-12-16T00:50:16;-3.40;99.30
7494;DHT22;3788;49.902;8.590;2022-12-16T00:52:43;-3.40;99.30
7494;DHT22;3788;49.902;8.590;2022-12-16T00:55:10;-3.40;99.30
7494;DHT22;3788;49.902;8.590;2022-12-16T00:57:37;-3.30;99.30
7494;DHT22;3788;49.902;8.590;2022-12-16T01:00:05;-3.30;99.30
7494;DHT22;3788;49.902;8.590;2022-12-16T01:02:35;-3.30;99.30
7494;DHT22;3788;49.902;8.590;2022-12-16T01:05:01;-3.30;99.30
7494;DHT22;3788;49.902;8.590;2022-12-16T01:07:28;-3.20;99.40
7494;DHT22;3788;49.902;8.590;2022-12-16T01:09:55;-3.20;99.40
7494;DHT22;3788;49.902;8.590;2022-12-16T01:12:22;-3.20;99.40
7494;DHT22;3788;49.902;8.590;2022-12-16T01:14:49;-3.20;99.40
7494;DHT22;3788;49.902;8.590;2022-12-16T01:17:16;-3.20;99.40
7494;DHT22;3788;49.902;8.590;2022-12-16T01:19:44;-3.20;99.40
7494;DHT22;3788;49.902;8.590;2022-12-16T01:22:11;-3.20;99.40
7494;DHT22;3788;49.902;8.590;2022-12-16T01:24:39;-3.10;99.50
7494;DHT22;3788;49.902;8.590;2022-12-16T01:27:07;-3.10;99.40
7494;DHT22;3788;49.902;8.590;2022-12-16T01:29:34;-3.10;99.40
7494;DHT22;3788;49.902;8.590;2022-12-16T01:32:01;-3.10;99.40
7494;DHT22;3788;49.902;8.590;2022-12-16T01:34:28;-3.10;99.40
7494;DHT22;3788;49.902;8.590;2022-12-16T01:36:56;-3.10;99.40
7494;DHT22;3788;49.902;8.590;2022-12-16T01:39:23;-3.00;99.40
7494;DHT22;3788;49.902;8.590;2022-12-16T01:41:51;-3.10;99.40
7494;DHT22;3788;49.902;8.590;2022-12-16T01:44:20;-3.00;99.30
7494;DHT22;3788;49.902;8.590;2022-12-16T01:46:50;-3.10;99.30
7494;DHT22;3788;49.902;8.590;2022-12-16T01:49:22;-3.00;99.30
7494;DHT22;3788;49.902;8.590;2022-12-16T01:51:50;-3.10;99.20
7494;DHT22;3788;49.902;8.590;2022-12-16T01:54:21;-3.10;99.10
7494;DHT22;3788;49.902;8.590;2022-12-16T01:56:52;-3.10;99.00
7494;DHT22;3788;49.902;8.590;2022-12-16T01:59:21;-3.20;99.00
7494;DHT22;3788;49.902;8.590;2022-12-16T02:01:48;-3.30;98.90
7494;DHT22;3788;49.902;8.590;2022-12-16T02:04:15;-3.30;99.00
7494;DHT22;3788;49.902;8.590;2022-12-16T02:06:42;-3.40;99.10
7494;DHT22;3788;49.902;8.590;2022-12-16T02:09:10;-3.40;99.10
7494;DHT22;3788;49.902;8.590;2022-12-16T02:11:56;-3.40;99.10
7494;DHT22;3788;49.902;8.590;2022-12-16T02:14:40;-3.50;99.00
7494;DHT22;3788;49.902;8.590;2022-12-16T02:17:19;-3.50;99.00
7494;DHT22;3788;49.902;8.590;2022-12-16T02:20:23;-3.50;99.10
7494;DHT22;3788;49.902;8.590;2022-12-16T02:23:16;-3.50;99.10
7494;DHT22;3788;49.902;8.590;2022-12-16T02:26:17;-3.60;99.00
7494;DHT22;3788;49.902;8.590;2022-12-16T02:29:15;-3.60;98.90
7494;DHT22;3788;49.902;8.590;2022-12-16T02:31:53;-3.70;98.90
7494;DHT22;3788;49.902;8.590;2022-12-16T02:34:29;-3.70;98.90
7494;DHT22;3788;49.902;8.590;2022-12-16T02:37:06;-3.70;98.90
7494;DHT22;3788;49.902;8.590;2022-12-16T02:39:36;-3.80;98.90
7494;DHT22;3788;49.902;8.590;2022-12-16T02:42:10;-3.80;98.90
7494;DHT22;3788;49.902;8.590;2022-12-16T02:44:43;-3.80;99.00
7494;DHT22;3788;49.902;8.590;2022-12-16T02:47:15;-3.80;99.00
7494;DHT22;3788;49.902;8.590;2022-12-16T02:49:47;-3.80;99.00
7494;DHT22;3788;49.902;8.590;2022-12-16T02:52:16;-3.80;99.00
7494;DHT22;3788;49.902;8.590;2022-12-16T02:54:45;-3.80;99.10
7494;DHT22;3788;49.902;8.590;2022-12-16T02:57:25;-3.80;99.10
7494;DHT22;3788;49.902;8.590;2022-12-16T03:00:01;-3.80;99.10
7494;DHT22;3788;49.902;8.590;2022-12-16T03:02:35;-3.80;99.10
7494;DHT22;3788;49.902;8.590;2022-12-16T03:05:07;-3.80;99.10
7494;DHT22;3788;49.902;8.590;2022-12-16T03:07:37;-3.80;99.20
7494;DHT22;3788;49.902;8.590;2022-12-16T03:10:07;-3.90;99.10
7494;DHT22;3788;49.902;8.590;2022-12-16T03:12:37;-3.90;99.20
7494;DHT22;3788;49.902;8.590;2022-12-16T03:15:07;-3.90;99.20
7494;DHT22;3788;49.902;8.590;2022-12-16T03:17:38;-3.90;99.30
7494;DHT22;3788;49.902;8.590;2022-12-16T03:20:09;-3.90;99.30
7494;DHT22;3788;49.902;8.590;2022-12-16T03:22:41;-4.00;99.40
7494;DHT22;3788;49.902;8.590;2022-12-16T03:25:10;-4.00;99.40
7494;DHT22;3788;49.902;8.590;2022-12-16T03:27:43;-4.00;99.50
7494;DHT22;3788;49.902;8.590;2022-12-16T03:30:15;-4.00;99.50
7494;DHT22;3788;49.902;8.590;2022-12-16T03:32:47;-4.00;99.50
7494;DHT22;3788;49.902;8.590;2022-12-16T03:35:19;-4.00;99.50
7494;DHT22;3788;49.902;8.590;2022-12-16T03:37:50;-4.00;99.50
7494;DHT22;3788;49.902;8.590;2022-12-16T03:40:20;-4.00;99.80
7494;DHT22;3788;49.902;8.590;2022-12-16T03:42:48;-4.00;99.50
7494;DHT22;3788;49.902;8.590;2022-12-16T03:45:21;-4.00;99.60
7494;DHT22;3788;49.902;8.590;2022-12-16T03:47:51;-4.00;99.50
7494;DHT22;3788;49.902;8.590;2022-12-16T03:50:22;-4.00;99.50
7494;DHT22;3788;49.902;8.590;2022-12-16T03:52:50;-4.00;99.40
7494;DHT22;3788;49.902;8.590;2022-12-16T03:55:17;-4.00;99.40
7494;DHT22;3788;49.902;8.590;2022-12-16T03:57:44;-4.00;99.40
7494;DHT22;3788;49.902;8.590;2022-12-16T04:00:12;-4.00;99.40
7494;DHT22;3788;49.902;8.590;2022-12-16T04:02:39;-4.00;99.50
7494;DHT22;3788;49.902;8.590;2022-12-16T04:05:08;-4.00;99.50
7494;DHT22;3788;49.902;8.590;2022-12-16T04:07:35;-4.00;99.60
7494;DHT22;3788;49.902;8.590;2022-12-16T04:10:03;-4.00;99.50
7494;DHT22;3788;49.902;8.590;2022-12-16T04:12:30;-4.00;99.60
7494;DHT22;3788;49.902;8.590;2022-12-16T04:15:14;-4.00;99.60
7494;DHT22;3788;49.902;8.590;2022-12-16T04:17:59;-4.10;99.50
7494;DHT22;3788;49.902;8.590;2022-12-16T04:20:48;-4.10;99.50
7494;DHT22;3788;49.902;8.590;2022-12-16T04:23:34;-4.10;99.60
7494;DHT22;3788;49.902;8.590;2022-12-16T04:26:19;-4.10;99.60
7494;DHT22;3788;49.902;8.590;2022-12-16T04:28:46;-4.20;99.40
7494;DHT22;3788;49.902;8.590;2022-12-16T04:31:13;-4.20;99.40
7494;DHT22;3788;49.902;8.590;2022-12-16T04:33:40;-4.30;99.40
7494;DHT22;3788;49.902;8.590;2022-12-16T04:36:25;-4.30;99.40
7494;DHT22;3788;49.902;8.590;2022-12-16T04:39:10;-4.40;99.40
7494;DHT22;3788;49.902;8.590;2022-12-16T04:41:54;-4.40;99.40
7494;DHT22;3788;49.902;8.590;2022-12-16T04:44:38;-4.40;99.40
7494;DHT22;3788;49.902;8.590;2022-12-16T04:47:22;-4.40;99.20
7494;DHT22;3788;49.902;8.590;2022-12-16T04:50:07;-4.50;99.10
7494;DHT22;3788;49.902;8.590;2022-12-16T04:52:53;-4.50;99.10
7494;DHT22;3788;49.902;8.590;2022-12-16T04:55:38;-4.50;99.00
7494;DHT22;3788;49.902;8.590;2022-12-16T04:58:22;-4.50;99.00
7494;DHT22;3788;49.902;8.590;2022-12-16T05:01:06;-4.50;98.90
7494;DHT22;3788;49.902;8.590;2022-12-16T05:03:51;-4.60;98.70
7494;DHT22;3788;49.902;8.590;2022-12-16T05:06:35;-4.70;98.60
7494;DHT22;3788;49.902;8.590;2022-12-16T05:09:20;-4.70;98.60
7494;DHT22;3788;49.902;8.590;2022-12-16T05:12:04;-4.80;98.50
7494;DHT22;3788;49.902;8.590;2022-12-16T05:14:49;-4.80;98.40
7494;DHT22;3788;49.902;8.590;2022-12-16T05:17:33;-4.90;98.30
7494;DHT22;3788;49.902;8.590;2022-12-16T05:20:17;-5.00;98.30
7494;DHT22;3788;49.902;8.590;2022-12-16T05:23:01;-5.00;98.40
7494;DHT22;3788;49.902;8.590;2022-12-16T05:25:58;-5.00;98.50
7494;DHT22;3788;49.902;8.590;2022-12-16T05:28:42;-5.00;98.40
7494;DHT22;3788;49.902;8.590;2022-12-16T05:31:27;-5.00;98.30
7494;DHT22;3788;49.902;8.590;2022-12-16T05:34:11;-5.00;98.30
7494;DHT22;3788;49.902;8.590;2022-12-16T05:36:55;-5.00;98.30
7494;DHT22;3788;49.902;8.590;2022-12-16T05:39:39;-5.00;98.10
7494;DHT22;3788;49.902;8.590;2022-12-16T05:42:25;-5.00;98.10
7494;DHT22;3788;49.902;8.590;2022-12-16T05:45:09;-5.00;98.00
7494;DHT22;3788;49.902;8.590;2022-12-16T05:47:53;-5.00;97.90
7494;DHT22;3788;49.902;8.590;2022-12-16T05:50:37;-5.10;97.80
7494;DHT22;3788;49.902;8.590;2022-12-16T05:53:21;-5.10;97.60
7494;DHT22;3788;49.902;8.590;2022-12-16T05:56:06;-5.20;97.50
7494;DHT22;3788;49.902;8.590;2022-12-16T05:58:51;-5.30;97.50
7494;DHT22;3788;49.902;8.590;2022-12-16T06:01:35;-5.30;97.60
7494;DHT22;3788;49.902;8.590;2022-12-16T06:04:19;-5.30;97.60
7494;DHT22;3788;49.902;8.590;2022-12-16T06:07:03;-5.30;97.50
7494;DHT22;3788;49.902;8.590;2022-12-16T06:09:48;-5.30;97.50
7494;DHT22;3788;49.902;8.590;2022-12-16T06:12:32;-5.30;97.40
7494;DHT22;3788;49.902;8.590;2022-12-16T06:15:17;-5.40;97.30
7494;DHT22;3788;49.902;8.590;2022-12-16T06:18:01;-5.40;97.30
7494;DHT22;3788;49.902;8.590;2022-12-16T06:21:00;-5.40;97.20
7494;DHT22;3788;49.902;8.590;2022-12-16T06:23:44;-5.40;97.20
7494;DHT22;3788;49.902;8.590;2022-12-16T06:26:28;-5.40;97.40
7494;DHT22;3788;49.902;8.590;2022-12-16T06:29:12;-5.50;97.00
7494;DHT22;3788;49.902;8.590;2022-12-16T06:31:58;-5.50;97.00
7494;DHT22;3788;49.902;8.590;2022-12-16T06:34:43;-5.50;97.00
7494;DHT22;3788;49.902;8.590;2022-12-16T06:37:27;-5.50;96.90
7494;DHT22;3788;49.902;8.590;2022-12-16T06:40:19;-5.60;96.90
7494;DHT22;3788;49.902;8.590;2022-12-16T06:43:04;-5.60;97.20
7494;DHT22;3788;49.902;8.590;2022-12-16T06:45:48;-5.50;97.00
7494;DHT22;3788;49.902;8.590;2022-12-16T06:48:48;-5.60;96.90
7494;DHT22;3788;49.902;8.590;2022-12-16T06:51:32;-5.50;96.90
7494;DHT22;3788;49.902;8.590;2022-12-16T06:54:16;-5.60;96.90
7494;DHT22;3788;49.902;8.590;2022-12-16T06:57:01;-5.60;96.90
7494;DHT22;3788;49.902;8.590;2022-12-16T06:59:45;-5.70;96.90
7494;DHT22;3788;49.902;8.590;2022-12-16T07:02:29;-5.70;96.80
7494;DHT22;3788;49.902;8.590;2022-12-16T07:05:14;-5.70;96.70
7494;DHT22;3788;49.902;8.590;2022-12-16T07:07:59;-5.70;96.70
7494;DHT22;3788;49.902;8.590;2022-12-16T07:10:43;-5.70;96.70
7494;DHT22;3788;49.902;8.590;2022-12-16T07:13:27;-5.70;96.50
7494;DHT22;3788;49.902;8.590;2022-12-16T07:16:11;-5.80;96.40
7494;DHT22;3788;49.902;8.590;2022-12-16T07:18:55;-5.80;96.40
7494;DHT22;3788;49.902;8.590;2022-12-16T07:21:52;-5.80;96.30
7494;DHT22;3788;49.902;8.590;2022-12-16T07:24:36;-5.80;96.30
7494;DHT22;3788;49.902;8.590;2022-12-16T07:27:20;-5.80;96.20
7494;DHT22;3788;49.902;8.590;2022-12-16T07:30:05;-5.80;96.10
7494;DHT22;3788;49.902;8.590;2022-12-16T07:32:49;-5.80;96.10
7494;DHT22;3788;49.902;8.590;2022-12-16T07:35:33;-5.80;96.10
7494;DHT22;3788;49.902;8.590;2022-12-16T07:38:19;-5.80;96.10
7494;DHT22;3788;49.902;8.590;2022-12-16T07:41:03;-5.80;96.00
7494;DHT22;3788;49.902;8.590;2022-12-16T07:43:46;-5.80;96.00
7494;DHT22;3788;49.902;8.590;2022-12-16T07:46:30;-5.70;96.00
7494;DHT22;3788;49.902;8.590;2022-12-16T07:49:15;-5.70;96.00
7494;DHT22;3788;49.902;8.590;2022-12-16T07:51:59;-5.70;96.30
7494;DHT22;3788;49.902;8.590;2022-12-16T07:54:44;-5.70;96.00
7494;DHT22;3788;49.902;8.590;2022-12-16T07:57:29;-5.70;96.00
7494;DHT22;3788;49.902;8.590;2022-12-16T08:00:13;-5.60;96.00
7494;DHT22;3788;49.902;8.590;2022-12-16T08:02:57;-5.60;96.00
7494;DHT22;3788;49.902;8.590;2022-12-16T08:05:42;-5.50;96.00
7494;DHT22;3788;49.902;8.590;2022-12-16T08:08:26;-5.50;96.00
7494;DHT22;3788;49.902;8.590;2022-12-16T08:11:12;-5.40;96.10
7494;DHT22;3788;49.902;8.590;2022-12-16T08:13:56;-5.30;96.10
7494;DHT22;3788;49.902;8.590;2022-12-16T08:16:40;-5.20;96.20
7494;DHT22;3788;49.902;8.590;2022-12-16T08:19:24;-5.10;96.10
7494;DHT22;3788;49.902;8.590;2022-12-16T08:22:09;-5.10;96.10
7494;DHT22;3788;49.902;8.590;2022-12-16T08:24:53;-5.00;96.00
7494;DHT22;3788;49.902;8.590;2022-12-16T08:27:38;-4.90;96.00
7494;DHT22;3788;49.902;8.590;2022-12-16T08:30:22;-4.80;96.00
7494;DHT22;3788;49.902;8.590;2022-12-16T08:33:06;-4.70;96.10
7494;DHT22;3788;49.902;8.590;2022-12-16T08:35:51;-4.60;95.90
7494;DHT22;3788;49.902;8.590;2022-12-16T08:38:35;-4.50;95.80
7494;DHT22;3788;49.902;8.590;2022-12-16T08:41:19;-4.40;95.70
7494;DHT22;3788;49.902;8.590;2022-12-16T08:44:05;-4.30;95.60
7494;DHT22;3788;49.902;8.590;2022-12-16T08:46:49;-4.20;95.60
7494;DHT22;3788;49.902;8.590;2022-12-16T08:49:34;-4.10;95.50
7494;DHT22;3788;49.902;8.590;2022-12-16T08:52:18;-4.00;95.50
7494;DHT22;3788;49.902;8.590;2022-12-16T08:55:03;-3.90;95.60
7494;DHT22;3788;49.902;8.590;2022-12-16T08:57:52;-3.80;95.70
7494;DHT22;3788;49.902;8.590;2022-12-16T09:00:38;-3.70;95.70
7494;DHT22;3788;49.902;8.590;2022-12-16T09:03:22;-3.50;95.80
7494;DHT22;3788;49.902;8.590;2022-12-16T09:06:15;-3.50;95.80
7494;DHT22;3788;49.902;8.590;2022-12-16T09:08:59;-3.40;95.90
7494;DHT22;3788;49.902;8.590;2022-12-16T09:11:43;-3.30;96.00
7494;DHT22;3788;49.902;8.590;2022-12-16T09:14:27;-3.20;96.10
7494;DHT22;3788;49.902;8.590;2022-12-16T09:17:13;-3.20;96.20
7494;DHT22;3788;49.902;8.590;2022-12-16T09:19:57;-3.10;96.30
7494;DHT22;3788;49.902;8.590;2022-12-16T09:22:41;-3.00;96.40
7494;DHT22;3788;49.902;8.590;2022-12-16T09:25:25;-3.00;96.40
7494;DHT22;3788;49.902;8.590;2022-12-16T09:28:10;-3.00;96.50
7494;DHT22;3788;49.902;8.590;2022-12-16T09:30:54;-2.90;96.60
7494;DHT22;3788;49.902;8.590;2022-12-16T09:33:39;-2.90;96.70
7494;DHT22;3788;49.902;8.590;2022-12-16T09:36:23;-2.90;96.80
7494;DHT22;3788;49.902;8.590;2022-12-16T09:39:07;-2.90;96.90
7494;DHT22;3788;49.902;8.590;2022-12-16T09:41:59;-2.90;97.00
7494;DHT22;3788;49.902;8.590;2022-12-16T09:44:52;-2.80;97.10
7494;DHT22;3788;49.902;8.590;2022-12-16T09:47:51;-2.70;97.20
7494;DHT22;3788;49.902;8.590;2022-12-16T09:50:40;-2.70;97.20
7494;DHT22;3788;49.902;8.590;2022-12-16T09:53:27;-2.60;97.30
7494;DHT22;3788;49.902;8.590;2022-12-16T09:56:16;-2.60;97.30
7494;DHT22;3788;49.902;8.590;2022-12-16T09:59:06;-2.50;97.40
7494;DHT22;3788;49.902;8.590;2022-12-16T10:01:54;-2.50;97.50
7494;DHT22;3788;49.902;8.590;2022-12-16T10:04:39;-2.40;97.60
7494;DHT22;3788;49.902;8.590;2022-12-16T10:07:29;-2.30;97.70
7494;DHT22;3788;49.902;8.590;2022-12-16T10:10:22;-2.30;97.80
7494;DHT22;3788;49.902;8.590;2022-12-16T10:13:16;-2.20;97.90
7494;DHT22;3788;49.902;8.590;2022-12-16T10:16:07;-2.10;98.00
7494;DHT22;3788;49.902;8.590;2022-12-16T10:18:59;-2.10;98.10
7494;DHT22;3788;49.902;8.590;2022-12-16T10:21:48;-2.00;98.20
7494;DHT22;3788;49.902;8.590;2022-12-16T10:24:55;-1.90;98.40
7494;DHT22;3788;49.902;8.590;2022-12-16T10:27:43;-1.80;98.40
7494;DHT22;3788;49.902;8.590;2022-12-16T10:30:29;-1.70;98.40
7494;DHT22;3788;49.902;8.590;2022-12-16T10:33:14;-1.60;98.40
7494;DHT22;3788;49.902;8.590;2022-12-16T10:35:59;-1.50;98.40
7494;DHT22;3788;49.902;8.590;2022-12-16T10:38:47;-1.50;98.40
7494;DHT22;3788;49.902;8.590;2022-12-16T10:41:36;-1.40;98.50
7494;DHT22;3788;49.902;8.590;2022-12-16T10:44:24;-1.40;98.40
7494;DHT22;3788;49.902;8.590;2022-12-16T10:47:09;-1.30;98.50
7494;DHT22;3788;49.902;8.590;2022-12-16T10:49:54;-1.30;98.50
7494;DHT22;3788;49.902;8.590;2022-12-16T10:52:50;-1.20;98.60
7494;DHT22;3788;49.902;8.590;2022-12-16T10:55:50;-1.20;98.60
7494;DHT22;3788;49.902;8.590;2022-12-16T10:58:44;-1.20;98.20
7494;DHT22;3788;49.902;8.590;2022-12-16T11:01:29;-1.20;98.20
7494;DHT22;3788;49.902;8.590;2022-12-16T11:04:31;-1.20;98.10
7494;DHT22;3788;49.902;8.590;2022-12-16T11:07:28;-1.10;98.20
7494;DHT22;3788;49.902;8.590;2022-12-16T11:10:24;-1.00;98.20
7494;DHT22;3788;49.902;8.590;2022-12-16T11:13:23;-0.90;98.10
7494;DHT22;3788;49.902;8.590;2022-12-16T11:16:18;-0.90;97.80
7494;DHT22;3788;49.902;8.590;2022-12-16T11:19:03;-0.90;97.80
7494;DHT22;3788;49.902;8.590;2022-12-16T11:21:48;-0.90;97.80
7494;DHT22;3788;49.902;8.590;2022-12-16T11:24:33;-0.80;97.90
7494;DHT22;3788;49.902;8.590;2022-12-16T11:27:22;-0.80;97.90
7494;DHT22;3788;49.902;8.590;2022-12-16T11:30:20;-0.80;97.70
7494;DHT22;3788;49.902;8.590;2022-12-16T11:33:11;-0.70;97.80
7494;DHT22;3788;49.902;8.590;2022-12-16T11:36:04;-0.70;97.90
7494;DHT22;3788;49.902;8.590;2022-12-16T11:38:51;-0.60;97.80
7494;DHT22;3788;49.902;8.590;2022-12-16T11:41:38;-0.50;97.70
7494;DHT22;3788;49.902;8.590;2022-12-16T11:44:27;-0.40;97.60
7494;DHT22;3788;49.902;8.590;2022-12-16T11:47:18;-0.20;97.20
7494;DHT22;3788;49.902;8.590;2022-12-16T11:50:10;-0.10;96.70
7494;DHT22;3788;49.902;8.590;2022-12-16T11:52:58;0.00;96.70
7494;DHT22;3788;49.902;8.590;2022-12-16T11:55:44;0.00;96.30
7494;DHT22;3788;49.902;8.590;2022-12-16T11:58:35;0.10;95.70
7494;DHT22;3788;49.902;8.590;2022-12-16T12:01:24;0.10;95.70
7494;DHT22;3788;49.902;8.590;2022-12-16T12:04:09;0.20;95.30
7494;DHT22;3788;49.902;8.590;2022-12-16T12:07:08;0.20;95.30
7494;DHT22;3788;49.902;8.590;2022-12-16T12:10:05;0.30;95.30
7494;DHT22;3788;49.902;8.590;2022-12-16T12:12:57;0.30;94.90
7494;DHT22;3788;49.902;8.590;2022-12-16T12:15:50;0.30;94.80
7494;DHT22;3788;49.902;8.590;2022-12-16T12:18:41;0.30;94.30
7494;DHT22;3788;49.902;8.590;2022-12-16T12:21:34;0.30;94.40
7494;DHT22;3788;49.902;8.590;2022-12-16T12:24:28;0.40;94.30
7494;DHT22;3788;49.902;8.590;2022-12-16T12:27:23;0.40;94.20
7494;DHT22;3788;49.902;8.590;2022-12-16T12:30:12;0.40;94.20
7494;DHT22;3788;49.902;8.590;2022-12-16T12:33:07;0.40;94.20
7494;DHT22;3788;49.902;8.590;2022-12-16T12:35:59;0.40;94.10
7494;DHT22;3788;49.902;8.590;2022-12-16T12:38:56;0.40;94.30
7494;DHT22;3788;49.902;8.590;2022-12-16T12:41:56;0.40;94.10
7494;DHT22;3788;49.902;8.590;2022-12-16T12:44:58;0.40;94.20
7494;DHT22;3788;49.902;8.590;2022-12-16T12:47:51;0.40;93.90
7494;DHT22;3788;49.902;8.590;2022-12-16T12:50:41;0.50;94.10
7494;DHT22;3788;49.902;8.590;2022-12-16T12:53:35;0.50;94.00
7494;DHT22;3788;49.902;8.590;2022-12-16T12:56:30;0.50;93.90
7494;DHT22;3788;49.902;8.590;2022-12-16T12:59:23;0.40;93.70
7494;DHT22;3788;49.902;8.590;2022-12-16T13:02:14;0.50;93.90
7494;DHT22;3788;49.902;8.590;2022-12-16T13:04:58;0.50;93.90
7494;DHT22;3788;49.902;8.590;2022-12-16T13:07:43;0.60;94.00
7494;DHT22;3788;49.902;8.590;2022-12-16T13:10:33;0.60;94.00
7494;DHT22;3788;49.902;8.590;2022-12-16T13:13:29;0.60;94.00
7494;DHT22;3788;49.902;8.590;2022-12-16T13:19:51;0.60;94.00
7494;DHT22;3788;49.902;8.590;2022-12-16T13:22:36;0.60;93.80
7494;DHT22;3788;49.902;8.590;2022-12-16T13:25:39;0.70;94.00
7494;DHT22;3788;49.902;8.590;2022-12-16T13:28:30;0.70;94.00
7494;DHT22;3788;49.902;8.590;2022-12-16T13:31:16;0.80;94.00
7494;DHT22;3788;49.902;8.590;2022-12-16T13:34:04;0.80;94.00
7494;DHT22;3788;49.902;8.590;2022-12-16T13:36:54;0.80;93.60
7494;DHT22;3788;49.902;8.590;2022-12-16T13:39:41;0.80;93.80
7494;DHT22;3788;49.902;8.590;2022-12-16T13:42:48;0.80;93.70
7494;DHT22;3788;49.902;8.590;2022-12-16T13:45:37;0.80;93.50
7494;DHT22;3788;49.902;8.590;2022-12-16T13:48:34;0.80;93.70
7494;DHT22;3788;49.902;8.590;2022-12-16T13:51:57;0.80;93.80
7494;DHT22;3788;49.902;8.590;2022-12-16T13:54:47;0.80;93.80
7494;DHT22;3788;49.902;8.590;2022-12-16T13:57:36;0.80;93.90
7494;DHT22;3788;49.902;8.590;2022-12-16T14:00:25;0.80;93.80
7494;DHT22;3788;49.902;8.590;2022-12-16T14:03:12;0.80;93.60
7494;DHT22;3788;49.902;8.590;2022-12-16T14:05:59;0.80;93.70
7494;DHT22;3788;49.902;8.590;2022-12-16T14:08:45;0.80;93.70
7494;DHT22;3788;49.902;8.590;2022-12-16T14:11:38;0.80;93.70
7494;DHT22;3788;49.902;8.590;2022-12-16T14:14:30;0.70;93.60
7494;DHT22;3788;49.902;8.590;2022-12-16T14:17:20;0.70;93.70
7494;DHT22;3788;49.902;8.590;2022-12-16T14:20:14;0.70;93.80
7494;DHT22;3788;49.902;8.590;2022-12-16T14:23:22;0.70;93.80
7494;DHT22;3788;49.902;8.590;2022-12-16T14:26:11;0.70;93.80
7494;DHT22;3788;49.902;8.590;2022-12-16T14:28:56;0.60;93.90
7494;DHT22;3788;49.902;8.590;2022-12-16T14:31:41;0.50;93.90
7494;DHT22;3788;49.902;8.590;2022-12-16T14:34:27;0.50;94.00
7494;DHT22;3788;49.902;8.590;2022-12-16T14:37:12;0.40;94.10
7494;DHT22;3788;49.902;8.590;2022-12-16T14:39:57;0.40;94.20
7494;DHT22;3788;49.902;8.590;2022-12-16T14:42:42;0.30;94.30
7494;DHT22;3788;49.902;8.590;2022-12-16T14:45:29;0.30;94.50
7494;DHT22;3788;49.902;8.590;2022-12-16T14:48:28;0.30;94.70
7494;DHT22;3788;49.902;8.590;2022-12-16T14:51:24;0.30;94.80
7494;DHT22;3788;49.902;8.590;2022-12-16T14:54:30;0.20;95.00
7494;DHT22;3788;49.902;8.590;2022-12-16T14:57:19;0.20;95.20
7494;DHT22;3788;49.902;8.590;2022-12-16T15:00:14;0.10;95.30
7494;DHT22;3788;49.902;8.590;2022-12-16T15:03:04;0.10;95.40
7494;DHT22;3788;49.902;8.590;2022-12-16T15:05:46;0.00;95.60
7494;DHT22;3788;49.902;8.590;2022-12-16T15:08:36;0.00;95.70
7494;DHT22;3788;49.902;8.590;2022-12-16T15:11:24;0.00;95.80
7494;DHT22;3788;49.902;8.590;2022-12-16T15:14:11;-0.10;95.90
7494;DHT22;3788;49.902;8.590;2022-12-16T15:16:57;-0.10;96.00
7494;DHT22;3788;49.902;8.590;2022-12-16T15:19:44;-0.10;96.10
7494;DHT22;3788;49.902;8.590;2022-12-16T15:22:29;-0.20;96.10
7494;DHT22;3788;49.902;8.590;2022-12-16T15:25:19;-0.20;96.30
7494;DHT22;3788;49.902;8.590;2022-12-16T15:28:04;-0.30;96.30
7494;DHT22;3788;49.902;8.590;2022-12-16T15:30:49;-0.30;96.40
7494;DHT22;3788;49.902;8.590;2022-12-16T15:33:36;-0.30;96.50
7494;DHT22;3788;49.902;8.590;2022-12-16T15:36:26;-0.40;96.60
7494;DHT22;3788;49.902;8.590;2022-12-16T15:39:18;-0.40;96.80
7494;DHT22;3788;49.902;8.590;2022-12-16T15:42:04;-0.50;96.90
7494;DHT22;3788;49.902;8.590;2022-12-16T15:44:50;-0.50;96.90
7494;DHT22;3788;49.902;8.590;2022-12-16T15:47:36;-0.60;97.00
7494;DHT22;3788;49.902;8.590;2022-12-16T15:50:25;-0.60;97.10
7494;DHT22;3788;49.902;8.590;2022-12-16T15:53:27;-0.60;97.20
7494;DHT22;3788;49.902;8.590;2022-12-16T15:56:22;-0.70;97.20
7494;DHT22;3788;49.902;8.590;2022-12-16T15:59:23;-0.70;97.20
7494;DHT22;3788;49.902;8.590;2022-12-16T16:02:16;-0.70;97.30
7494;DHT22;3788;49.902;8.590;2022-12-16T16:05:01;-0.80;97.40
7494;DHT22;3788;49.902;8.590;2022-12-16T16:07:53;-0.80;97.40
7494;DHT22;3788;49.902;8.590;2022-12-16T16:10:37;-0.80;97.60
7494;DHT22;3788;49.902;8.590;2022-12-16T16:13:24;-0.90;97.60
7494;DHT22;3788;49.902;8.590;2022-12-16T16:16:10;-0.90;97.60
7494;DHT22;3788;49.902;8.590;2022-12-16T16:18:54;-0.90;97.70
7494;DHT22;3788;49.902;8.590;2022-12-16T16:21:39;-1.00;97.80
7494;DHT22;3788;49.902;8.590;2022-12-16T16:24:24;-1.00;97.80
7494;DHT22;3788;49.902;8.590;2022-12-16T16:27:11;-1.00;97.90
7494;DHT22;3788;49.902;8.590;2022-12-16T16:29:59;-1.00;98.00
7494;DHT22;3788;49.902;8.590;2022-12-16T16:32:43;-1.00;98.00
7494;DHT22;3788;49.902;8.590;2022-12-16T16:35:29;-1.00;98.40
7494;DHT22;3788;49.902;8.590;2022-12-16T16:38:14;-1.10;98.10
7494;DHT22;3788;49.902;8.590;2022-12-16T16:40:59;-1.00;98.20
7494;DHT22;3788;49.902;8.590;2022-12-16T16:43:43;-1.10;98.20
7494;DHT22;3788;49.902;8.590;2022-12-16T16:46:33;-1.10;98.20
7494;DHT22;3788;49.902;8.590;2022-12-16T16:49:21;-1.10;98.20
7494;DHT22;3788;49.902;8.590;2022-12-16T16:52:10;-1.20;98.20
7494;DHT22;3788;49.902;8.590;2022-12-16T16:54:54;-1.30;98.20
7494;DHT22;3788;49.902;8.590;2022-12-16T16:57:40;-1.30;98.20
7494;DHT22;3788;49.902;8.590;2022-12-16T17:00:26;-1.40;98.30
7494;DHT22;3788;49.902;8.590;2022-12-16T17:03:10;-1.50;98.20
7494;DHT22;3788;49.902;8.590;2022-12-16T17:05:54;-1.50;98.30
7494;DHT22;3788;49.902;8.590;2022-12-16T17:08:39;-1.50;98.40
7494;DHT22;3788;49.902;8.590;2022-12-16T17:11:23;-1.60;98.40
7494;DHT22;3788;49.902;8.590;2022-12-16T17:14:12;-1.60;98.40
7494;DHT22;3788;49.902;8.590;2022-12-16T17:16:52;-1.60;98.50
7494;DHT22;3788;49.902;8.590;2022-12-16T17:19:37;-1.60;98.50
7494;DHT22;3788;49.902;8.590;2022-12-16T17:22:21;-1.60;98.50
7494;DHT22;3788;49.902;8.590;2022-12-16T17:25:06;-1.60;98.60
7494;DHT22;3788;49.902;8.590;2022-12-16T17:27:51;-1.60;98.60
7494;DHT22;3788;49.902;8.590;2022-12-16T17:30:36;-1.60;98.60
7494;DHT22;3788;49.902;8.590;2022-12-16T17:33:20;-1.60;98.70
7494;DHT22;3788;49.902;8.590;2022-12-16T17:36:05;-1.70;98.60
7494;DHT22;3788;49.902;8.590;2022-12-16T17:38:49;-1.70;98.60
7494;DHT22;3788;49.902;8.590;2022-12-16T17:41:33;-1.70;98.60
7494;DHT22;3788;49.902;8.590;2022-12-16T17:44:18;-1.70;98.60
7494;DHT22;3788;49.902;8.590;2022-12-16T17:47:03;-1.80;98.60
7494;DHT22;3788;49.902;8.590;2022-12-16T17:49:47;-1.80;98.60
7494;DHT22;3788;49.902;8.590;2022-12-16T17:52:32;-1.80;98.60